Time,TemperatureF,DewpointF,PressureIn,WindDirection,WindDirectionDegrees,WindSpeedMPH,WindSpeedGustMPH,Humidity,HourlyPrecipIn,Conditions,Clouds,dailyrainin,SoftwareType,DateUTC
2013-07-06 00:05:00,64.8,61.5,30.03,SSE,157,0.0,-999.0,89,0.00,,,0.16,open2300 v1.10,2013-07-06 05:05:00,
2013-07-06 00:13:00,64.8,61.5,30.03,SSE,157,0.0,-999.0,89,0.00,,,0.16,open2300 v1.10,2013-07-06 05:13:00,
2013-07-06 00:19:00,64.6,61.3,30.03,SSE,157,0.0,-999.0,89,0.00,,,0.16,open2300 v1.10,2013-07-06 05:19:00,
2013-07-06 00:28:00,64.8,61.5,30.03,SSE,157,0.0,-999.0,89,0.00,,,0.16,open2300 v1.10,2013-07-06 05:28:00,
2013-07-06 00:34:00,64.8,61.5,30.04,SSE,157,0.0,-999.0,89,0.00,,,0.16,open2300 v1.10,2013-07-06 05:34:00,
2013-07-06 00:43:00,64.9,62.0,30.03,SSE,157,0.0,-999.0,90,0.00,,,0.16,open2300 v1.10,2013-07-06 05:43:00,
2013-07-06 00:49:00,64.9,62.0,30.03,SSE,157,0.0,-999.0,90,0.00,,,0.16,open2300 v1.10,2013-07-06 05:49:00,
2013-07-06 00:58:00,65.1,62.2,30.03,SSE,157,0.0,-999.0,90,0.00,,,0.16,open2300 v1.10,2013-07-06 05:58:00,
2013-07-06 01:07:00,65.1,62.2,30.03,SSE,157,0.0,-999.0,90,0.00,,,0.16,open2300 v1.10,2013-07-06 06:07:00,
2013-07-06 01:13:00,65.1,62.2,30.03,SSE,157,0.0,-999.0,90,0.00,,,0.16,open2300 v1.10,2013-07-06 06:13:00,
2013-07-06 01:19:00,65.1,62.2,30.03,SSE,157,0.0,-999.0,90,0.00,,,0.16,open2300 v1.10,2013-07-06 06:19:00,
2013-07-06 01:28:00,65.3,62.3,30.03,SSE,157,0.0,-999.0,90,0.00,,,0.16,open2300 v1.10,2013-07-06 06:28:00,
2013-07-06 01:34:00,65.3,62.3,30.03,SSE,157,0.0,-999.0,90,0.00,,,0.16,open2300 v1.10,2013-07-06 06:34:00,
2013-07-06 01:43:00,65.5,62.5,30.02,SSE,157,0.0,-999.0,90,0.00,,,0.16,open2300 v1.10,2013-07-06 06:43:00,
2013-07-06 01:49:00,65.5,62.5,30.03,SSE,157,0.0,-999.0,90,0.00,,,0.16,open2300 v1.10,2013-07-06 06:49:00,
2013-07-06 01:58:00,65.7,62.7,30.03,SSE,157,0.0,-999.0,90,0.00,,,0.16,open2300 v1.10,2013-07-06 06:58:00,
2013-07-06 02:05:00,65.8,62.8,30.03,SSE,157,0.0,-999.0,90,0.00,,,0.16,open2300 v1.10,2013-07-06 07:05:00,
2013-07-06 02:13:00,66.0,63.0,30.02,SSE,157,0.0,-999.0,90,0.00,,,0.16,open2300 v1.10,2013-07-06 07:13:00,
2013-07-06 02:19:00,66.0,63.0,30.02,SSE,157,0.0,-999.0,90,0.00,,,0.16,open2300 v1.10,2013-07-06 07:19:00,
2013-07-06 02:28:00,66.6,63.8,30.01,SSE,157,0.0,-999.0,91,0.00,,,0.16,open2300 v1.10,2013-07-06 07:28:00,
2013-07-06 02:34:00,66.7,64.0,30.01,SSE,157,0.0,-999.0,91,0.00,,,0.16,open2300 v1.10,2013-07-06 07:34:00,
2013-07-06 02:43:00,66.7,64.0,30.02,SSE,157,0.0,-999.0,91,0.00,,,0.16,open2300 v1.10,2013-07-06 07:43:00,
2013-07-06 02:49:00,66.7,64.0,30.03,SSE,157,0.0,-999.0,91,0.00,,,0.16,open2300 v1.10,2013-07-06 07:49:00,
2013-07-06 02:58:00,66.7,64.0,30.02,SSE,157,0.0,-999.0,91,0.00,,,0.16,open2300 v1.10,2013-07-06 07:58:00,
2013-07-06 03:05:00,66.7,64.0,30.02,SSE,157,0.0,-999.0,91,0.00,,,0.16,open2300 v1.10,2013-07-06 08:05:00,
2013-07-06 03:13:00,66.6,63.8,30.02,SSE,157,0.0,-999.0,91,0.00,,,0.16,open2300 v1.10,2013-07-06 08:13:00,
2013-07-06 03:19:00,66.6,63.8,30.02,SSE,157,0.0,-999.0,91,0.00,,,0.16,open2300 v1.10,2013-07-06 08:19:00,
2013-07-06 03:28:00,66.4,63.6,30.03,SSE,157,0.0,-999.0,91,0.00,,,0.16,open2300 v1.10,2013-07-06 08:28:00,
2013-07-06 03:34:00,66.4,63.6,30.03,SSE,157,0.0,-999.0,91,0.00,,,0.16,open2300 v1.10,2013-07-06 08:34:00,
2013-07-06 03:43:00,66.6,63.8,30.03,SSE,157,0.0,-999.0,91,0.00,,,0.16,open2300 v1.10,2013-07-06 08:43:00,
2013-07-06 03:49:00,66.7,64.0,30.03,SSE,157,0.0,-999.0,91,0.00,,,0.16,open2300 v1.10,2013-07-06 08:49:00,
2013-07-06 03:58:00,66.9,64.2,30.03,SSE,157,0.0,-999.0,91,0.00,,,0.16,open2300 v1.10,2013-07-06 08:58:00,
2013-07-06 04:05:00,66.9,64.2,30.03,SSE,157,0.0,-999.0,91,0.00,,,0.16,open2300 v1.10,2013-07-06 09:05:00,
2013-07-06 04:13:00,67.1,64.3,30.03,SSE,157,0.0,-999.0,91,0.00,,,0.16,open2300 v1.10,2013-07-06 09:13:00,
2013-07-06 04:19:00,67.3,64.5,30.03,SSE,157,0.0,-999.0,91,0.00,,,0.16,open2300 v1.10,2013-07-06 09:19:00,
2013-07-06 04:28:00,67.6,64.9,30.03,SSE,157,0.0,-999.0,91,0.00,,,0.16,open2300 v1.10,2013-07-06 09:28:00,
2013-07-06 04:34:00,67.6,64.9,30.03,SSE,157,0.0,-999.0,91,0.00,,,0.16,open2300 v1.10,2013-07-06 09:34:00,
2013-07-06 04:43:00,67.8,65.1,30.03,SSE,157,0.0,-999.0,91,0.00,,,0.16,open2300 v1.10,2013-07-06 09:43:00,
2013-07-06 04:49:00,68.0,65.2,30.03,SSE,157,0.0,-999.0,91,0.00,,,0.16,open2300 v1.10,2013-07-06 09:49:00,
2013-07-06 04:58:00,68.2,65.4,30.04,SSE,157,0.0,-999.0,91,0.00,,,0.16,open2300 v1.10,2013-07-06 09:58:00,
2013-07-06 05:05:00,68.2,65.4,30.04,SSW,202,0.0,-999.0,91,0.00,,,0.16,open2300 v1.10,2013-07-06 10:05:00,
2013-07-06 05:13:00,68.4,65.6,30.04,SSW,202,0.0,-999.0,91,0.00,,,0.16,open2300 v1.10,2013-07-06 10:13:00,
2013-07-06 05:19:00,68.4,65.9,30.03,SE,135,0.0,-999.0,92,0.00,,,0.16,open2300 v1.10,2013-07-06 10:19:00,
2013-07-06 05:28:00,68.4,65.9,30.04,SSE,157,0.0,-999.0,92,0.00,,,0.16,open2300 v1.10,2013-07-06 10:28:00,
2013-07-06 05:34:00,68.4,65.9,30.04,SSE,157,0.0,-999.0,92,0.00,,,0.16,open2300 v1.10,2013-07-06 10:34:00,
2013-07-06 05:43:00,68.4,65.9,30.04,South,180,0.0,-999.0,92,0.00,,,0.16,open2300 v1.10,2013-07-06 10:43:00,
2013-07-06 05:49:00,68.4,65.9,30.04,South,180,0.0,-999.0,92,0.00,,,0.16,open2300 v1.10,2013-07-06 10:49:00,
2013-07-06 05:58:00,68.4,65.9,30.05,South,180,0.0,-999.0,92,0.00,,,0.16,open2300 v1.10,2013-07-06 10:58:00,
2013-07-06 06:05:00,68.4,65.9,30.05,South,180,0.0,-999.0,92,0.00,,,0.16,open2300 v1.10,2013-07-06 11:05:00,
2013-07-06 06:13:00,68.5,66.1,30.04,South,180,0.0,-999.0,92,0.00,,,0.16,open2300 v1.10,2013-07-06 11:13:00,
2013-07-06 06:19:00,68.5,66.1,30.05,South,180,0.0,-999.0,92,0.00,,,0.16,open2300 v1.10,2013-07-06 11:19:00,
2013-07-06 06:28:00,68.5,66.1,30.05,South,180,0.0,-999.0,92,0.00,,,0.16,open2300 v1.10,2013-07-06 11:28:00,
2013-07-06 06:34:00,68.5,66.1,30.04,South,180,0.0,-999.0,92,0.00,,,0.16,open2300 v1.10,2013-07-06 11:34:00,
2013-07-06 06:43:00,68.5,66.1,30.05,South,180,0.0,-999.0,92,0.00,,,0.16,open2300 v1.10,2013-07-06 11:43:00,
2013-07-06 06:49:00,68.5,66.1,30.05,South,180,0.0,-999.0,92,0.00,,,0.16,open2300 v1.10,2013-07-06 11:49:00,
2013-07-06 06:58:00,68.7,66.3,30.05,South,180,0.0,-999.0,92,0.00,,,0.16,open2300 v1.10,2013-07-06 11:58:00,
2013-07-06 07:05:00,68.7,66.3,30.05,South,180,0.0,-999.0,92,0.00,,,0.16,open2300 v1.10,2013-07-06 12:05:00,
2013-07-06 07:13:00,69.3,66.8,30.05,South,180,0.0,-999.0,92,0.00,,,0.16,open2300 v1.10,2013-07-06 12:13:00,
2013-07-06 07:19:00,69.4,67.0,30.05,South,180,0.0,-999.0,92,0.00,,,0.16,open2300 v1.10,2013-07-06 12:19:00,
2013-07-06 07:28:00,69.6,67.2,30.05,South,180,0.0,-999.0,92,0.00,,,0.16,open2300 v1.10,2013-07-06 12:28:00,
2013-07-06 07:34:00,70.0,67.5,30.05,South,180,0.0,-999.0,92,0.00,,,0.16,open2300 v1.10,2013-07-06 12:34:00,
2013-07-06 07:43:00,70.3,67.9,30.05,South,180,0.0,-999.0,92,0.00,,,0.16,open2300 v1.10,2013-07-06 12:43:00,
2013-07-06 07:49:00,70.7,68.2,30.05,SSE,157,0.0,-999.0,92,0.00,,,0.16,open2300 v1.10,2013-07-06 12:49:00,
2013-07-06 07:58:00,71.2,68.8,30.05,South,180,0.0,-999.0,92,0.00,,,0.16,open2300 v1.10,2013-07-06 12:58:00,
2013-07-06 08:05:00,71.4,69.0,30.05,South,180,0.0,-999.0,92,0.00,,,0.16,open2300 v1.10,2013-07-06 13:05:00,
2013-07-06 08:13:00,71.8,69.3,30.05,South,180,0.0,-999.0,92,0.00,,,0.16,open2300 v1.10,2013-07-06 13:13:00,
2013-07-06 08:19:00,72.1,69.7,30.05,South,180,0.0,-999.0,92,0.00,,,0.16,open2300 v1.10,2013-07-06 13:19:00,
2013-07-06 08:28:00,72.3,69.6,30.05,South,180,0.0,-999.0,91,0.00,,,0.16,open2300 v1.10,2013-07-06 13:28:00,
2013-07-06 08:34:00,72.5,69.8,30.05,SSE,157,0.0,-999.0,91,0.00,,,0.16,open2300 v1.10,2013-07-06 13:34:00,
2013-07-06 08:43:00,73.0,70.3,30.05,SSE,157,0.0,-999.0,91,0.00,,,0.16,open2300 v1.10,2013-07-06 13:43:00,
2013-07-06 08:49:00,73.2,70.5,30.05,SSE,157,0.0,-999.0,91,0.00,,,0.16,open2300 v1.10,2013-07-06 13:49:00,
2013-07-06 08:58:00,73.9,70.9,30.05,SSE,157,0.0,-999.0,90,0.00,,,0.16,open2300 v1.10,2013-07-06 13:58:00,
2013-07-06 09:05:00,74.5,71.4,30.05,SSE,157,0.0,-999.0,90,0.00,,,0.16,open2300 v1.10,2013-07-06 14:05:00,
2013-07-06 09:13:00,74.7,71.3,30.05,SSE,157,0.0,-999.0,89,0.00,,,0.16,open2300 v1.10,2013-07-06 14:13:00,
2013-07-06 09:19:00,74.8,71.4,30.06,SSE,157,0.0,-999.0,89,0.00,,,0.16,open2300 v1.10,2013-07-06 14:19:00,
2013-07-06 09:28:00,75.0,70.9,30.06,SSE,157,0.0,-999.0,87,0.00,,,0.16,open2300 v1.10,2013-07-06 14:28:00,
2013-07-06 09:34:00,75.0,70.9,30.06,SSE,157,0.0,-999.0,87,0.00,,,0.16,open2300 v1.10,2013-07-06 14:34:00,
2013-07-06 09:43:00,75.7,71.3,30.06,South,180,0.0,-999.0,86,0.00,,,0.16,open2300 v1.10,2013-07-06 14:43:00,
2013-07-06 09:49:00,75.7,70.9,30.06,South,180,0.0,-999.0,85,0.00,,,0.16,open2300 v1.10,2013-07-06 14:49:00,
2013-07-06 09:58:00,75.6,70.8,30.06,SSE,157,0.0,-999.0,85,0.00,,,0.16,open2300 v1.10,2013-07-06 14:58:00,
2013-07-06 10:05:00,75.9,71.1,30.06,SSE,157,0.0,-999.0,85,0.00,,,0.16,open2300 v1.10,2013-07-06 15:05:00,
2013-07-06 10:13:00,77.2,72.0,30.07,South,180,0.0,-999.0,84,0.00,,,0.16,open2300 v1.10,2013-07-06 15:13:00,
2013-07-06 10:19:00,77.9,72.3,30.07,SSE,157,0.0,-999.0,83,0.00,,,0.16,open2300 v1.10,2013-07-06 15:19:00,
2013-07-06 10:28:00,77.7,71.4,30.07,South,180,0.0,-999.0,81,0.00,,,0.16,open2300 v1.10,2013-07-06 15:28:00,
2013-07-06 10:34:00,77.4,70.7,30.07,South,180,0.0,-999.0,80,0.00,,,0.16,open2300 v1.10,2013-07-06 15:34:00,
2013-07-06 10:43:00,77.9,72.0,30.07,South,180,0.0,-999.0,82,0.00,,,0.16,open2300 v1.10,2013-07-06 15:43:00,
2013-07-06 10:49:00,79.2,72.8,30.06,SSE,157,0.0,-999.0,81,0.00,,,0.16,open2300 v1.10,2013-07-06 15:49:00,
2013-07-06 10:58:00,80.4,72.6,30.07,South,180,0.0,-999.0,77,0.00,,,0.16,open2300 v1.10,2013-07-06 15:58:00,
2013-07-06 11:05:00,80.4,72.6,30.07,SSW,202,0.0,-999.0,77,0.00,,,0.16,open2300 v1.10,2013-07-06 16:05:00,
2013-07-06 11:13:00,81.1,72.5,30.07,South,180,0.0,-999.0,75,0.00,,,0.16,open2300 v1.10,2013-07-06 16:13:00,
2013-07-06 11:34:00,83.5,72.7,30.06,SW,225,0.0,-999.0,70,0.00,,,0.16,open2300 v1.10,2013-07-06 16:34:00,
2013-07-06 11:58:00,85.3,73.1,30.06,South,180,0.0,-999.0,67,0.00,,,0.16,open2300 v1.10,2013-07-06 16:58:00,
2013-07-06 12:05:00,84.7,72.1,30.06,SSW,202,0.0,-999.0,66,0.00,,,0.16,open2300 v1.10,2013-07-06 17:05:00,
2013-07-06 12:13:00,86.2,73.0,30.06,South,180,0.0,-999.0,65,0.00,,,0.16,open2300 v1.10,2013-07-06 17:13:00,
2013-07-06 12:19:00,85.8,72.7,30.06,South,180,0.0,-999.0,65,0.00,,,0.16,open2300 v1.10,2013-07-06 17:19:00,
2013-07-06 12:28:00,86.5,72.4,30.05,WNW,292,0.0,-999.0,63,0.00,,,0.16,open2300 v1.10,2013-07-06 17:28:00,
2013-07-06 12:43:00,86.5,72.0,30.05,SW,225,0.0,-999.0,62,0.00,,,0.16,open2300 v1.10,2013-07-06 17:43:00,
2013-07-06 12:49:00,87.1,73.0,30.04,ESE,112,0.0,-999.0,63,0.00,,,0.16,open2300 v1.10,2013-07-06 17:49:00,
2013-07-06 12:58:00,88.5,73.4,30.04,ESE,112,0.0,-999.0,61,0.00,,,0.16,open2300 v1.10,2013-07-06 17:58:00,
2013-07-06 13:05:00,88.7,72.1,30.04,SSE,157,0.0,-999.0,58,0.00,,,0.16,open2300 v1.10,2013-07-06 18:05:00,
2013-07-06 13:13:00,88.5,71.3,30.03,SSW,202,0.0,-999.0,57,0.00,,,0.16,open2300 v1.10,2013-07-06 18:13:00,
2013-07-06 13:34:00,88.9,70.6,30.03,South,180,0.0,-999.0,55,0.00,,,0.16,open2300 v1.10,2013-07-06 18:34:00,
2013-07-06 13:43:00,88.9,71.1,30.02,South,180,0.0,-999.0,56,0.00,,,0.16,open2300 v1.10,2013-07-06 18:43:00,
2013-07-06 13:58:00,88.2,71.0,30.02,South,180,0.0,-999.0,57,0.00,,,0.16,open2300 v1.10,2013-07-06 18:58:00,
2013-07-06 14:05:00,88.3,70.7,30.02,SE,135,0.0,-999.0,56,0.00,,,0.16,open2300 v1.10,2013-07-06 19:05:00,
2013-07-06 14:13:00,88.9,71.7,30.01,ESE,112,0.0,-999.0,57,0.00,,,0.16,open2300 v1.10,2013-07-06 19:13:00,
2013-07-06 14:19:00,88.9,71.7,30.01,SSW,202,0.0,-999.0,57,0.00,,,0.16,open2300 v1.10,2013-07-06 19:19:00,
2013-07-06 14:49:00,85.6,69.7,30.01,SSW,202,0.0,-999.0,59,0.00,,,0.16,open2300 v1.10,2013-07-06 19:49:00,
2013-07-06 14:58:00,85.5,70.0,30.01,SSE,157,0.0,-999.0,60,0.00,,,0.16,open2300 v1.10,2013-07-06 19:58:00,
2013-07-06 15:49:00,84.7,70.7,29.99,WSW,247,0.0,-999.0,63,0.00,,,0.16,open2300 v1.10,2013-07-06 20:49:00,
2013-07-06 15:58:00,85.3,70.8,29.99,SSE,157,0.0,-999.0,62,0.00,,,0.16,open2300 v1.10,2013-07-06 20:58:00,
2013-07-06 16:05:00,85.6,71.1,29.98,SSE,157,0.0,-999.0,62,0.00,,,0.16,open2300 v1.10,2013-07-06 21:05:00,
2013-07-06 16:19:00,84.6,70.6,29.98,SSE,157,0.0,-999.0,63,0.00,,,0.16,open2300 v1.10,2013-07-06 21:19:00,
2013-07-06 16:28:00,84.4,70.9,29.98,SSE,157,0.0,-999.0,64,0.00,,,0.16,open2300 v1.10,2013-07-06 21:28:00,
2013-07-06 16:43:00,85.1,71.1,29.98,SSE,157,0.0,-999.0,63,0.00,,,0.16,open2300 v1.10,2013-07-06 21:43:00,
2013-07-06 16:49:00,85.1,71.1,29.98,SSW,202,0.0,-999.0,63,0.00,,,0.16,open2300 v1.10,2013-07-06 21:49:00,
2013-07-06 17:13:00,83.5,70.0,29.98,South,180,0.0,-999.0,64,0.00,,,0.16,open2300 v1.10,2013-07-06 22:13:00,
2013-07-06 17:19:00,83.3,69.8,29.97,South,180,0.0,-999.0,64,0.00,,,0.16,open2300 v1.10,2013-07-06 22:19:00,
2013-07-06 17:28:00,83.5,70.4,29.97,NNW,337,0.0,-999.0,65,0.00,,,0.16,open2300 v1.10,2013-07-06 22:28:00,
2013-07-06 17:43:00,83.8,69.9,29.97,SSW,202,0.0,-999.0,63,0.00,,,0.16,open2300 v1.10,2013-07-06 22:43:00,
2013-07-06 17:49:00,83.8,69.9,29.97,South,180,0.0,-999.0,63,0.00,,,0.16,open2300 v1.10,2013-07-06 22:49:00,
2013-07-06 18:05:00,83.5,70.0,29.97,SSW,202,0.0,-999.0,64,0.00,,,0.12,open2300 v1.10,2013-07-06 23:05:00,
2013-07-06 18:13:00,83.3,69.3,29.98,SW,225,0.0,-999.0,63,0.00,,,0.12,open2300 v1.10,2013-07-06 23:13:00,
2013-07-06 18:34:00,82.0,69.0,29.98,South,180,0.0,-999.0,65,0.00,,,0.12,open2300 v1.10,2013-07-06 23:34:00,
2013-07-06 18:43:00,81.7,69.2,29.98,South,180,0.0,-999.0,66,0.00,,,0.12,open2300 v1.10,2013-07-06 23:43:00,
2013-07-06 18:58:00,81.7,69.6,29.98,South,180,0.0,-999.0,67,0.00,,,0.12,open2300 v1.10,2013-07-06 23:58:00,
2013-07-06 19:05:00,82.0,70.4,29.98,SSE,157,0.0,-999.0,68,0.00,,,0.02,open2300 v1.10,2013-07-07 00:05:00,
2013-07-06 19:13:00,82.2,70.1,29.98,South,180,0.0,-999.0,67,0.00,,,0.02,open2300 v1.10,2013-07-07 00:13:00,
2013-07-06 19:19:00,82.0,69.9,29.98,South,180,0.0,-999.0,67,0.00,,,0.02,open2300 v1.10,2013-07-07 00:19:00,
2013-07-06 19:34:00,81.3,69.3,29.98,SSW,202,0.0,-999.0,67,0.00,,,0.02,open2300 v1.10,2013-07-07 00:34:00,
2013-07-06 19:43:00,80.4,68.4,29.98,SSW,202,0.0,-999.0,67,0.00,,,0.02,open2300 v1.10,2013-07-07 00:43:00,
2013-07-06 19:49:00,80.2,69.2,29.98,SSW,202,0.0,-999.0,69,0.00,,,0.02,open2300 v1.10,2013-07-07 00:49:00,
2013-07-06 19:58:00,79.5,69.3,29.99,SSW,202,0.0,-999.0,71,0.00,,,0.02,open2300 v1.10,2013-07-07 00:58:00,
2013-07-06 20:13:00,78.4,69.0,29.99,SSW,202,0.0,-999.0,73,0.00,,,0.00,open2300 v1.10,2013-07-07 01:13:00,
2013-07-06 20:19:00,77.9,68.9,29.99,SSW,202,0.0,-999.0,74,0.00,,,0.00,open2300 v1.10,2013-07-07 01:19:00,
2013-07-06 20:28:00,77.4,68.8,29.99,SSW,202,0.0,-999.0,75,0.00,,,0.00,open2300 v1.10,2013-07-07 01:28:00,
2013-07-06 20:43:00,76.6,68.5,30.00,SSW,202,0.0,-999.0,76,0.00,,,0.00,open2300 v1.10,2013-07-07 01:43:00,
2013-07-06 21:05:00,75.7,68.8,30.01,SSW,202,0.0,-999.0,79,0.00,,,0.00,open2300 v1.10,2013-07-07 02:05:00,
2013-07-06 21:13:00,75.2,68.7,30.01,SSW,202,0.0,-999.0,80,0.00,,,0.00,open2300 v1.10,2013-07-07 02:13:00,
2013-07-06 21:19:00,75.0,68.9,30.01,SSW,202,0.0,-999.0,81,0.00,,,0.00,open2300 v1.10,2013-07-07 02:19:00,
2013-07-06 21:28:00,74.5,68.3,30.02,SSW,202,0.0,-999.0,81,0.00,,,0.00,open2300 v1.10,2013-07-07 02:28:00,
2013-07-06 21:49:00,73.9,68.1,30.03,SSW,202,0.0,-999.0,82,0.00,,,0.00,open2300 v1.10,2013-07-07 02:49:00,
2013-07-06 21:58:00,73.8,68.3,30.02,SSW,202,0.0,-999.0,83,0.00,,,0.00,open2300 v1.10,2013-07-07 02:58:00,
2013-07-06 22:05:00,73.6,68.1,30.03,SSW,202,0.0,-999.0,83,0.00,,,0.00,open2300 v1.10,2013-07-07 03:05:00,
2013-07-06 22:13:00,73.6,68.5,30.03,SSW,202,0.0,-999.0,84,0.00,,,0.00,open2300 v1.10,2013-07-07 03:13:00,
2013-07-06 22:19:00,73.2,68.1,30.03,SSW,202,0.0,-999.0,84,0.00,,,0.00,open2300 v1.10,2013-07-07 03:19:00,
2013-07-06 22:28:00,73.0,67.9,30.03,SSW,202,0.0,-999.0,84,0.00,,,0.00,open2300 v1.10,2013-07-07 03:28:00,
2013-07-06 23:05:00,72.5,67.4,30.03,SSW,202,0.0,-999.0,84,0.00,,,0.00,open2300 v1.10,2013-07-07 04:05:00,
2013-07-06 23:13:00,72.3,67.6,30.03,SSW,202,0.0,-999.0,85,0.00,,,0.00,open2300 v1.10,2013-07-07 04:13:00,
2013-07-06 23:19:00,72.5,67.7,30.03,SSW,202,0.0,-999.0,85,0.00,,,0.00,open2300 v1.10,2013-07-07 04:19:00,
2013-07-06 23:28:00,72.5,67.7,30.03,SSW,202,0.0,-999.0,85,0.00,,,0.00,open2300 v1.10,2013-07-07 04:28:00,
2013-07-06 23:34:00,72.3,67.6,30.03,SSW,202,0.0,-999.0,85,0.00,,,0.00,open2300 v1.10,2013-07-07 04:34:00,
2013-07-06 23:43:00,72.1,67.4,30.04,SSW,202,0.0,-999.0,85,0.00,,,0.00,open2300 v1.10,2013-07-07 04:43:00,
2013-07-06 23:49:00,72.0,67.5,30.04,SSW,202,0.0,-999.0,86,0.00,,,0.00,open2300 v1.10,2013-07-07 04:49:00,
2013-07-06 23:58:00,71.8,67.3,30.04,SSW,202,0.0,-999.0,86,0.00,,,0.00,open2300 v1.10,2013-07-07 04:58:00,